Time;durP1;ratioP1;P1;durP2;ratioP2;P2;SDS_P1;SDS_P2;PMS_P1;PMS_P2;Temp;Humidity;BMP_temperature;BMP_pressure;BME280_temperature;BME280_humidity;BME280_pressure;Samples;Min_cycle;Max_cycle;Signal;HPM_P1;HPM_P2
2022/05/16 00:01:21;;;;;;;;;;;;;;;9.67;100.00;101471.84;5039069;28;19932;-78
2022/05/16 00:03:56;;;;;;;;;;;;;;;9.72;100.00;101468.34;5061530;28;20265;-77
2022/05/16 00:06:24;;;;;;;;;;;;;;;9.71;100.00;101470.25;5069576;28;19927;-77
2022/05/16 00:08:55;;;;;;;;;;;;;;;9.67;100.00;101469.94;5067735;28;19931;-78
2022/05/16 00:11:28;;;;;;;;;;;;;;;9.65;100.00;101468.53;5071807;28;19931;-77
2022/05/16 00:14:01;;;;;;;;;;;;;;;9.69;100.00;101464.22;5040757;28;19924;-77
2022/05/16 00:16:34;;;;;;;;;;;;;;;9.61;100.00;101462.81;5061750;28;19921;-77
2022/05/16 00:19:08;;;;;;;;;;;;;;;9.48;100.00;101461.28;5048088;28;19924;-77
2022/05/16 00:21:37;;;;;;;;;;;;;;;9.42;100.00;101465.00;5061768;28;19968;-77
2022/05/16 00:24:10;;;;;;;;;;;;;;;9.42;100.00;101466.88;5068408;28;19927;-76
2022/05/16 00:26:39;;;;;;;;;;;;;;;9.43;100.00;101463.09;5053966;28;19924;-77
2022/05/16 00:29:12;;;;;;;;;;;;;;;9.38;100.00;101463.88;5045410;28;19928;-77
2022/05/16 00:31:45;;;;;;;;;;;;;;;9.32;100.00;101454.00;5037192;28;19932;-78
2022/05/16 00:34:19;;;;;;;;;;;;;;;9.25;100.00;101461.53;5045734;28;19920;-78
2022/05/16 00:36:53;;;;;;;;;;;;;;;9.27;100.00;101459.41;5068316;28;19920;-77
2022/05/16 00:39:22;;;;;;;;;;;;;;;9.27;100.00;101454.78;5047814;28;20384;-77
2022/05/16 00:41:55;;;;;;;;;;;;;;;9.31;100.00;101455.91;5071088;28;19931;-77
2022/05/16 00:44:28;;;;;;;;;;;;;;;9.33;100.00;101472.75;5049715;28;19931;-77
2022/05/16 00:46:56;;;;;;;;;;;;;;;9.28;100.00;101475.44;5061339;28;20381;-78
2022/05/16 00:49:32;;;;;;;;;;;;;;;9.31;100.00;101472.22;5042472;28;19921;-77
2022/05/16 00:52:09;;;;;;;;;;;;;;;9.30;100.00;101473.28;5080003;28;19925;-77
2022/05/16 00:54:44;;;;;;;;;;;;;;;9.29;100.00;101468.91;5066914;28;19920;-78
2022/05/16 00:57:19;;;;;;;;;;;;;;;9.28;100.00;101474.59;5056469;28;19925;-77
2022/05/16 00:59:55;;;;;;;;;;;;;;;9.28;100.00;101478.16;5077337;28;19979;-78
2022/05/16 01:05:17;;;;;;;;;;;;;;;9.18;100.00;101476.13;5051121;28;19925;-77
2022/05/16 01:07:50;;;;;;;;;;;;;;;9.19;100.00;101469.59;5066228;28;19921;-78
2022/05/16 01:10:23;;;;;;;;;;;;;;;9.18;100.00;101472.56;5073346;28;19924;-77
2022/05/16 01:12:52;;;;;;;;;;;;;;;9.09;100.00;101464.03;5051446;28;19920;-77
2022/05/16 01:15:30;;;;;;;;;;;;;;;9.09;100.00;101464.03;5055413;28;19931;-77
2022/05/16 01:18:04;;;;;;;;;;;;;;;9.07;100.00;101462.63;5049261;28;19921;-77
2022/05/16 01:20:46;;;;;;;;;;;;;;;9.00;100.00;101460.09;5072342;28;19925;-78
2022/05/16 01:23:21;;;;;;;;;;;;;;;9.02;100.00;101455.25;5062570;28;19920;-77
2022/05/16 01:25:50;;;;;;;;;;;;;;;8.98;100.00;101454.94;5055950;28;19920;-77
2022/05/16 01:28:19;;;;;;;;;;;;;;;8.95;100.00;101454.59;5053339;28;20423;-78
2022/05/16 01:30:54;;;;;;;;;;;;;;;9.02;100.00;101452.53;5050217;28;19947;-77
2022/05/16 01:33:27;;;;;;;;;;;;;;;8.98;100.00;101440.53;5065850;28;20002;-78
2022/05/16 01:36:00;;;;;;;;;;;;;;;8.92;100.00;101441.53;5062046;28;19921;-77
2022/05/16 01:38:35;;;;;;;;;;;;;;;8.93;100.00;101445.88;5048264;28;19928;-77
2022/05/16 01:41:09;;;;;;;;;;;;;;;8.89;100.00;101440.13;5074502;28;19924;-78
2022/05/16 01:43:43;;;;;;;;;;;;;;;9.05;100.00;101426.78;5048072;28;19927;-79
2022/05/16 01:46:17;;;;;;;;;;;;;;;9.02;100.00;101431.63;5071367;28;20642;-78
2022/05/16 01:48:45;;;;;;;;;;;;;;;8.96;100.00;101426.38;5064192;28;20544;-78
2022/05/16 01:51:18;;;;;;;;;;;;;;;8.92;100.00;101430.66;5050076;28;20274;-77
2022/05/16 01:53:53;;;;;;;;;;;;;;;8.91;100.00;101426.31;5064672;28;19920;-78
2022/05/16 01:56:22;;;;;;;;;;;;;;;8.93;100.00;101422.28;5083684;28;19925;-78
2022/05/16 01:58:55;;;;;;;;;;;;;;;8.92;100.00;101417.94;5055183;28;19920;-77
2022/05/16 02:01:23;;;;;;;;;;;;;;;8.87;100.00;101415.16;5043928;28;19951;-78
2022/05/16 02:03:56;;;;;;;;;;;;;;;8.83;100.00;101412.09;5049302;28;19920;-78
2022/05/16 02:06:29;;;;;;;;;;;;;;;8.85;100.00;101414.56;5059769;28;20371;-78
2022/05/16 02:09:03;;;;;;;;;;;;;;;8.85;100.00;101401.81;5065681;28;19920;-79
2022/05/16 02:11:31;;;;;;;;;;;;;;;8.84;100.00;101394.75;5067252;28;19920;-77
2022/05/16 02:14:04;;;;;;;;;;;;;;;8.87;100.00;101398.84;5049236;28;19928;-78
2022/05/16 02:16:37;;;;;;;;;;;;;;;8.84;100.00;101404.78;5060565;28;19921;-77
2022/05/16 02:19:10;;;;;;;;;;;;;;;8.82;100.00;101406.91;5067465;28;20261;-77
2022/05/16 02:24:42;;;;;;;;;;;;;;;8.77;100.00;101395.97;5047941;28;19936;-77
2022/05/16 02:27:17;;;;;;;;;;;;;;;8.75;100.00;101392.72;5054682;28;19924;-78
2022/05/16 02:29:45;;;;;;;;;;;;;;;8.70;100.00;101392.63;5067240;28;19920;-77
2022/05/16 02:32:18;;;;;;;;;;;;;;;8.65;100.00;101396.09;5066791;28;19931;-77
2022/05/16 02:34:47;;;;;;;;;;;;;;;8.64;100.00;101397.16;5045511;28;19924;-77
2022/05/16 02:37:20;;;;;;;;;;;;;;;8.58;100.00;101396.28;5048607;28;19924;-78
2022/05/16 02:39:54;;;;;;;;;;;;;;;8.58;100.00;101393.56;5043318;28;19921;-78
2022/05/16 02:42:27;;;;;;;;;;;;;;;8.56;100.00;101386.75;5054898;28;19924;-78
2022/05/16 02:45:00;;;;;;;;;;;;;;;8.55;100.00;101391.34;5070408;28;19935;-77
2022/05/16 02:47:33;;;;;;;;;;;;;;;8.48;100.00;101391.53;5043600;28;19994;-77
2022/05/16 02:50:06;;;;;;;;;;;;;;;8.50;100.00;101378.50;5070398;28;19927;-77
2022/05/16 02:52:40;;;;;;;;;;;;;;;8.48;100.00;101375.25;5043414;28;19932;-77
2022/05/16 02:55:14;;;;;;;;;;;;;;;8.53;100.00;101379.09;5071077;28;19920;-77
2022/05/16 02:57:47;;;;;;;;;;;;;;;8.50;100.00;101381.22;5046337;28;19939;-77
2022/05/16 03:00:20;;;;;;;;;;;;;;;8.51;100.00;101385.59;5069650;28;19924;-77
2022/05/16 03:02:53;;;;;;;;;;;;;;;8.51;100.00;101382.88;5062131;28;19939;-77
2022/05/16 03:05:26;;;;;;;;;;;;;;;8.48;100.00;101385.28;5066326;28;19920;-77
2022/05/16 03:08:00;;;;;;;;;;;;;;;8.44;100.00;101381.41;5058965;28;19921;-77
2022/05/16 03:10:34;;;;;;;;;;;;;;;8.42;100.00;101387.03;5063993;28;19924;-77
2022/05/16 03:13:02;;;;;;;;;;;;;;;8.39;100.00;101379.41;5085454;28;20387;-77
2022/05/16 03:15:36;;;;;;;;;;;;;;;8.38;100.00;101374.22;5069819;28;19920;-77
2022/05/16 03:18:04;;;;;;;;;;;;;;;8.37;100.00;101378.84;5044844;28;20288;-77
2022/05/16 03:20:32;;;;;;;;;;;;;;;8.38;100.00;101371.53;5043968;28;19955;-77
2022/05/16 03:23:00;;;;;;;;;;;;;;;8.37;100.00;101375.28;5046076;28;19958;-77
2022/05/16 03:25:35;;;;;;;;;;;;;;;8.34;100.00;101376.59;5072130;28;19925;-77
2022/05/16 03:28:03;;;;;;;;;;;;;;;8.32;100.00;101376.84;5052992;28;20399;-77
2022/05/16 03:30:36;;;;;;;;;;;;;;;8.32;100.00;101373.34;5058366;28;19921;-78
2022/05/16 03:33:09;;;;;;;;;;;;;;;8.34;100.00;101372.03;5050309;28;19924;-77
2022/05/16 03:35:37;;;;;;;;;;;;;;;8.31;100.00;101366.25;5064418;28;19963;-77
2022/05/16 03:38:05;;;;;;;;;;;;;;;8.34;100.00;101361.19;5044364;28;19920;-78
2022/05/16 03:40:45;;;;;;;;;;;;;;;8.35;100.00;101359.28;5078046;28;19924;-77
2022/05/16 03:43:18;;;;;;;;;;;;;;;8.32;100.00;101357.88;5042734;28;19924;-77
2022/05/16 03:45:51;;;;;;;;;;;;;;;8.30;100.00;101357.31;5060518;28;19920;-77
2022/05/16 03:48:24;;;;;;;;;;;;;;;8.37;100.00;101362.56;5067958;28;19931;-77
2022/05/16 03:50:57;;;;;;;;;;;;;;;8.39;100.00;101355.00;5061040;28;19925;-77
2022/05/16 03:53:30;;;;;;;;;;;;;;;8.39;100.00;101355.00;5062958;28;19935;-77
2022/05/16 03:56:04;;;;;;;;;;;;;;;8.42;100.00;101346.34;5071822;28;19920;-77
2022/05/16 03:58:37;;;;;;;;;;;;;;;8.44;100.00;101348.84;5045900;28;19924;-77
2022/05/16 04:01:11;;;;;;;;;;;;;;;8.43;100.00;101353.44;5041198;28;20273;-78
2022/05/16 04:03:45;;;;;;;;;;;;;;;8.47;100.00;101360.03;5070606;28;19927;-78
2022/05/16 04:06:13;;;;;;;;;;;;;;;8.45;100.00;101364.06;5064952;28;19925;-77
2022/05/16 04:08:42;;;;;;;;;;;;;;;8.47;100.00;101367.34;5069286;28;19990;-77
2022/05/16 04:11:12;;;;;;;;;;;;;;;8.53;100.00;101363.63;5052885;28;19924;-78
2022/05/16 04:13:40;;;;;;;;;;;;;;;8.55;100.00;101366.94;5066635;28;20549;-78
2022/05/16 04:16:13;;;;;;;;;;;;;;;8.64;100.00;101370.84;5041763;28;19925;-78
2022/05/16 04:18:46;;;;;;;;;;;;;;;8.64;100.00;101361.91;5056627;28;19927;-78
2022/05/16 04:21:19;;;;;;;;;;;;;;;8.68;100.00;101363.03;5059206;28;19921;-78
2022/05/16 04:23:52;;;;;;;;;;;;;;;8.66;100.00;101352.44;5052298;28;19921;-78
2022/05/16 04:26:22;;;;;;;;;;;;;;;8.68;100.00;101355.72;5053229;28;20303;-78
2022/05/16 04:28:55;;;;;;;;;;;;;;;8.71;100.00;101362.53;5065446;28;19924;-78
2022/05/16 04:31:28;;;;;;;;;;;;;;;8.74;100.00;101361.22;5050287;28;19920;-78
2022/05/16 04:34:01;;;;;;;;;;;;;;;8.77;100.00;101356.13;5065745;28;19932;-77
2022/05/16 04:36:33;;;;;;;;;;;;;;;8.93;100.00;101357.13;5043733;28;19920;-79
2022/05/16 04:39:01;;;;;;;;;;;;;;;8.94;100.00;101364.19;5062708;28;19922;-78
2022/05/16 04:44:21;;;;;;;;;;;;;;;9.22;100.00;101375.94;5059764;28;19943;-77
2022/05/16 04:46:54;;;;;;;;;;;;;;;9.32;100.00;101358.94;5046567;28;19927;-78
2022/05/16 04:49:27;;;;;;;;;;;;;;;9.45;100.00;101357.75;5071147;28;19924;-79
2022/05/16 04:52:00;;;;;;;;;;;;;;;9.52;100.00;101363.78;5064323;28;20384;-78
2022/05/16 04:54:33;;;;;;;;;;;;;;;9.57;100.00;101355.69;5073149;28;19920;-78
2022/05/16 04:57:07;;;;;;;;;;;;;;;9.57;100.00;101355.69;5068046;28;19935;-79
2022/05/16 04:59:40;;;;;;;;;;;;;;;9.92;100.00;101346.22;5051875;28;20295;-78
2022/05/16 05:02:08;;;;;;;;;;;;;;;10.03;100.00;101344.41;5071858;28;20395;-78
2022/05/16 05:04:41;;;;;;;;;;;;;;;10.79;100.00;101335.13;5064537;28;19925;-78
2022/05/16 05:07:14;;;;;;;;;;;;;;;12.02;100.00;101333.78;5049670;28;19928;-78
2022/05/16 05:15:24;;;;;;;;;;;;;;;14.81;100.00;101331.03;5069535;28;20396;-79
2022/05/16 05:17:58;;;;;;;;;;;;;;;15.76;100.00;101333.81;5065222;28;19932;-78
2022/05/16 05:20:32;;;;;;;;;;;;;;;15.53;100.00;101332.00;5043487;28;19928;-78
2022/05/16 05:23:06;;;;;;;;;;;;;;;15.78;100.00;101339.00;5049818;28;19925;-78
2022/05/16 05:25:39;;;;;;;;;;;;;;;16.02;100.00;101335.34;5070102;28;19925;-79
2022/05/16 05:28:13;;;;;;;;;;;;;;;16.26;100.00;101324.22;5063389;28;19928;-79
2022/05/16 05:30:41;;;;;;;;;;;;;;;16.27;100.00;101323.13;5069946;28;19931;-79
2022/05/16 05:33:14;;;;;;;;;;;;;;;15.04;100.00;101329.38;5048734;28;19924;-79
2022/05/16 05:35:47;;;;;;;;;;;;;;;14.37;100.00;101321.88;5069195;28;19920;-79
2022/05/16 05:38:19;;;;;;;;;;;;;;;13.97;100.00;101323.09;5059035;28;19920;-78
2022/05/16 05:40:52;;;;;;;;;;;;;;;13.80;100.00;101334.47;5068604;28;19920;-78
2022/05/16 05:43:27;;;;;;;;;;;;;;;13.64;100.00;101328.28;5058370;28;19925;-79
2022/05/16 05:45:55;;;;;;;;;;;;;;;13.46;100.00;101333.31;5081336;28;19928;-79
2022/05/16 05:48:22;;;;;;;;;;;;;;;13.40;100.00;101329.00;5043206;28;19920;-78
2022/05/16 05:50:52;;;;;;;;;;;;;;;13.27;100.00;101322.19;5056489;28;19920;-79
2022/05/16 05:53:25;;;;;;;;;;;;;;;13.14;100.00;101315.44;5049477;28;19920;-78
2022/05/16 05:55:58;;;;;;;;;;;;;;;13.25;100.00;101325.19;5044724;28;19920;-77
2022/05/16 05:58:27;;;;;;;;;;;;;;;13.23;100.00;101326.59;5066993;28;19928;-80
2022/05/16 06:01:00;;;;;;;;;;;;;;;13.38;100.00;101317.50;5049104;28;19925;-79
2022/05/16 06:03:33;;;;;;;;;;;;;;;13.22;100.00;101305.84;5059647;28;19939;-80
2022/05/16 06:06:06;;;;;;;;;;;;;;;13.51;100.00;101308.69;5050635;28;20393;-80
2022/05/16 06:08:35;;;;;;;;;;;;;;;13.59;100.00;101302.59;5049843;28;19920;-78
2022/05/16 06:11:08;;;;;;;;;;;;;;;13.69;100.00;101303.63;5061976;28;19921;-79
2022/05/16 06:13:38;;;;;;;;;;;;;;;13.69;100.00;101306.38;5068741;28;19920;-78
2022/05/16 06:16:12;;;;;;;;;;;;;;;13.79;100.00;101300.81;5051893;28;19935;-79
2022/05/16 06:18:40;;;;;;;;;;;;;;;13.81;100.00;101306.00;5067888;28;19924;-79
2022/05/16 06:21:13;;;;;;;;;;;;;;;13.81;100.00;101301.34;5054879;28;19944;-80
2022/05/16 06:23:46;;;;;;;;;;;;;;;13.77;100.00;101295.63;5049623;28;19921;-79
2022/05/16 06:26:19;;;;;;;;;;;;;;;13.71;100.00;101294.06;5039541;28;20447;-78
2022/05/16 06:28:53;;;;;;;;;;;;;;;13.75;100.00;101302.47;5042961;28;19925;-78
2022/05/16 06:31:26;;;;;;;;;;;;;;;13.90;100.00;101317.97;5066955;28;19929;-78
2022/05/16 06:33:54;;;;;;;;;;;;;;;14.14;100.00;101306.25;5049139;28;19935;-78
2022/05/16 06:36:27;;;;;;;;;;;;;;;14.26;100.00;101298.47;5045227;28;19920;-78
2022/05/16 06:39:00;;;;;;;;;;;;;;;14.46;100.00;101291.97;5028470;28;19924;-79
2022/05/16 06:41:34;;;;;;;;;;;;;;;14.51;100.00;101299.28;5026200;28;19928;-78
2022/05/16 06:44:13;;;;;;;;;;;;;;;14.62;100.00;101295.31;5043454;28;19928;-77
2022/05/16 06:46:47;;;;;;;;;;;;;;;14.74;100.00;101300.44;5041262;28;19935;-78
2022/05/16 06:49:20;;;;;;;;;;;;;;;14.66;100.00;101301.06;5051064;28;19928;-79
2022/05/16 06:51:53;;;;;;;;;;;;;;;14.98;100.00;101302.31;5032837;28;19929;-79
2022/05/16 06:54:21;;;;;;;;;;;;;;;14.92;100.00;101304.31;5045114;28;20440;-80
2022/05/16 06:56:54;;;;;;;;;;;;;;;15.02;100.00;101309.66;5048794;28;21227;-78
2022/05/16 06:59:28;;;;;;;;;;;;;;;15.03;100.00;101310.50;5028143;28;19932;-78
2022/05/16 07:02:01;;;;;;;;;;;;;;;15.34;100.00;101308.09;5054145;28;21450;-77
2022/05/16 07:04:36;;;;;;;;;;;;;;;15.24;100.00;101306.34;5046600;28;20007;-78
2022/05/16 07:07:09;;;;;;;;;;;;;;;15.38;100.00;101298.19;5048294;28;20442;-78
2022/05/16 07:09:42;;;;;;;;;;;;;;;15.48;100.00;101306.28;5045076;28;19936;-78
2022/05/16 07:12:15;;;;;;;;;;;;;;;15.54;100.00;101306.19;5052989;28;19921;-78
2022/05/16 07:14:50;;;;;;;;;;;;;;;15.67;100.00;101304.63;5031089;28;19935;-78
2022/05/16 07:17:23;;;;;;;;;;;;;;;15.64;100.00;101295.03;5044314;28;19935;-78
2022/05/16 07:19:56;;;;;;;;;;;;;;;16.02;100.00;101285.94;5046394;28;19928;-79
2022/05/16 07:22:29;;;;;;;;;;;;;;;15.96;100.00;101279.72;5049812;28;19928;-78
2022/05/16 07:25:02;;;;;;;;;;;;;;;16.17;100.00;101287.59;5046714;28;19939;-79
2022/05/16 07:30:28;;;;;;;;;;;;;;;16.17;100.00;101291.13;5029962;28;19929;-79
2022/05/16 07:33:02;;;;;;;;;;;;;;;16.18;100.00;101292.78;5055416;28;19924;-78
2022/05/16 07:35:36;;;;;;;;;;;;;;;16.33;100.00;101302.66;5047246;28;19928;-78
2022/05/16 07:38:09;;;;;;;;;;;;;;;16.52;100.00;101288.84;5029382;28;19928;-79
2022/05/16 07:40:42;;;;;;;;;;;;;;;16.51;100.00;101289.16;5043547;28;19928;-79
2022/05/16 07:43:16;;;;;;;;;;;;;;;16.56;100.00;101294.53;5044456;28;19935;-78
2022/05/16 07:45:50;;;;;;;;;;;;;;;16.62;100.00;101287.81;5027774;28;19932;-78
2022/05/16 07:48:23;;;;;;;;;;;;;;;16.95;100.00;101287.72;5045613;28;19928;-78
2022/05/16 07:50:57;;;;;;;;;;;;;;;17.29;100.00;101280.91;5048582;28;19928;-79
2022/05/16 07:53:24;;;;;;;;;;;;;;;16.83;100.00;101285.47;5046578;28;19924;-79
2022/05/16 07:55:58;;;;;;;;;;;;;;;16.72;100.00;101278.56;5042916;28;19928;-79
2022/05/16 07:58:31;;;;;;;;;;;;;;;16.73;100.00;101280.19;5045999;28;19929;-79
2022/05/16 08:01:01;;;;;;;;;;;;;;;16.60;100.00;101279.91;5039394;28;19935;-79
2022/05/16 08:03:34;;;;;;;;;;;;;;;16.75;100.00;101281.50;5023206;28;19928;-78
2022/05/16 08:06:07;;;;;;;;;;;;;;;17.07;100.00;101270.69;5044206;28;19928;-79
2022/05/16 08:11:31;;;;;;;;;;;;;;;17.33;100.00;101276.41;5009894;28;19929;-79
2022/05/16 08:14:04;;;;;;;;;;;;;;;17.48;100.00;101281.56;5021884;28;19928;-78
2022/05/16 08:16:38;;;;;;;;;;;;;;;17.47;100.00;101279.13;5019646;28;19928;-78
2022/05/16 08:19:12;;;;;;;;;;;;;;;17.58;100.00;101276.91;5037754;28;19928;-79
2022/05/16 08:21:48;;;;;;;;;;;;;;;17.34;100.00;101267.03;5040029;28;19928;-78
2022/05/16 08:24:16;;;;;;;;;;;;;;;17.48;96.82;101275.22;5050580;28;19931;-79
2022/05/16 08:26:49;;;;;;;;;;;;;;;17.89;100.00;101271.47;5028474;28;19928;-78
2022/05/16 08:29:17;;;;;;;;;;;;;;;17.83;100.00;101270.78;5045068;28;19967;-79
2022/05/16 08:31:51;;;;;;;;;;;;;;;17.99;100.00;101265.72;5045959;28;19928;-79
2022/05/16 08:34:24;;;;;;;;;;;;;;;18.23;100.00;101260.94;5053243;28;19959;-79
2022/05/16 08:39:55;;;;;;;;;;;;;;;18.12;97.16;101260.44;5043316;28;19928;-80
2022/05/16 08:42:36;;;;;;;;;;;;;;;18.23;100.00;101245.25;5043835;28;19928;-80
2022/05/16 08:45:14;;;;;;;;;;;;;;;18.24;100.00;101259.84;5048402;28;19929;-79
2022/05/16 08:47:50;;;;;;;;;;;;;;;18.51;100.00;101248.56;5064668;28;20291;-80
2022/05/16 08:50:26;;;;;;;;;;;;;;;18.55;100.00;101251.53;5023028;28;20562;-80
2022/05/16 08:53:02;;;;;;;;;;;;;;;18.89;100.00;101257.44;5025910;28;19929;-80
2022/05/16 08:55:37;;;;;;;;;;;;;;;18.84;100.00;101252.88;5040320;28;19935;-79
2022/05/16 08:58:09;;;;;;;;;;;;;;;18.74;100.00;101255.94;5040333;28;19935;-80
2022/05/16 09:00:47;;;;;;;;;;;;;;;18.65;89.56;101253.16;5030435;28;20265;-80
2022/05/16 09:03:27;;;;;;;;;;;;;;;18.73;100.00;101240.53;5024665;28;20285;-79
2022/05/16 09:06:02;;;;;;;;;;;;;;;18.69;100.00;101243.91;5045071;28;20434;-79
2022/05/16 09:08:40;;;;;;;;;;;;;;;18.69;95.25;101237.59;5047854;28;20475;-79
2022/05/16 09:11:16;;;;;;;;;;;;;;;18.73;87.24;101237.78;5026942;28;19928;-80
2022/05/16 09:13:51;;;;;;;;;;;;;;;18.95;100.00;101231.34;5027972;28;19939;-80
2022/05/16 09:16:32;;;;;;;;;;;;;;;19.03;100.00;101231.34;5046688;28;19936;-79
2022/05/16 09:19:13;;;;;;;;;;;;;;;18.80;99.42;101232.59;5028160;28;20369;-80
2022/05/16 09:21:49;;;;;;;;;;;;;;;18.66;98.33;101246.53;5048886;28;19936;-79
2022/05/16 09:24:24;;;;;;;;;;;;;;;18.79;98.86;101242.00;5022732;28;19929;-78
2022/05/16 09:26:57;;;;;;;;;;;;;;;19.00;100.00;101236.69;5045190;28;19935;-79
2022/05/16 09:29:32;;;;;;;;;;;;;;;19.12;100.00;101244.34;5031643;28;19935;-79
2022/05/16 09:32:09;;;;;;;;;;;;;;;19.14;83.89;101242.88;5046233;28;20031;-79
2022/05/16 09:34:43;;;;;;;;;;;;;;;19.47;95.50;101236.03;5023383;28;19936;-79
2022/05/16 09:37:16;;;;;;;;;;;;;;;19.80;94.65;101213.41;5025507;28;19936;-79
2022/05/16 09:39:50;;;;;;;;;;;;;;;19.89;92.55;101216.97;5049477;28;19929;-78
2022/05/16 09:42:24;;;;;;;;;;;;;;;19.73;95.02;101213.88;5043011;28;19936;-79
2022/05/16 09:44:59;;;;;;;;;;;;;;;19.93;92.47;101217.94;5029382;28;19951;-79
2022/05/16 09:47:37;;;;;;;;;;;;;;;20.31;98.67;101221.81;5024641;28;19935;-79
2022/05/16 09:50:19;;;;;;;;;;;;;;;20.29;80.36;101224.13;5046519;28;19928;-79
2022/05/16 09:52:48;;;;;;;;;;;;;;;20.60;87.06;101221.00;5061418;28;19924;-79
2022/05/16 09:55:25;;;;;;;;;;;;;;;20.67;88.24;101218.53;5045792;28;19969;-79
2022/05/16 09:57:59;;;;;;;;;;;;;;;20.55;90.28;101219.25;5044846;28;20375;-79
2022/05/16 10:00:38;;;;;;;;;;;;;;;20.55;75.07;101218.44;5045088;28;19928;-80
2022/05/16 10:03:20;;;;;;;;;;;;;;;20.49;69.07;101208.72;5023854;28;19939;-80
2022/05/16 10:05:55;;;;;;;;;;;;;;;20.68;88.53;101208.28;5039794;28;21347;-79
2022/05/16 10:08:30;;;;;;;;;;;;;;;21.08;93.76;101210.59;5021900;28;19931;-79
2022/05/16 10:10:59;;;;;;;;;;;;;;;20.84;72.30;101205.72;5041405;28;20664;-79
2022/05/16 10:13:27;;;;;;;;;;;;;;;20.76;81.91;101195.56;5044314;28;19928;-79
2022/05/16 10:16:03;;;;;;;;;;;;;;;21.08;88.42;101193.19;5048182;28;19928;-80
2022/05/16 10:18:39;;;;;;;;;;;;;;;21.22;71.25;101188.16;5056453;28;19929;-79
2022/05/16 10:21:17;;;;;;;;;;;;;;;21.27;81.49;101185.19;5042903;28;19928;-79
2022/05/16 10:23:51;;;;;;;;;;;;;;;21.21;70.32;101187.38;5046185;28;19924;-78
2022/05/16 10:26:26;;;;;;;;;;;;;;;21.37;81.22;101179.22;5038677;28;19924;-79
2022/05/16 10:29:01;;;;;;;;;;;;;;;21.27;76.81;101184.34;5038885;28;19928;-79
2022/05/16 10:34:32;;;;;;;;;;;;;;;21.68;75.98;101186.25;5059798;28;19928;-79
2022/05/16 10:37:07;;;;;;;;;;;;;;;21.73;75.27;101168.59;5030212;28;19939;-79
2022/05/16 10:39:42;;;;;;;;;;;;;;;21.72;57.55;101180.81;5052151;28;19931;-79
2022/05/16 10:42:17;;;;;;;;;;;;;;;21.45;66.01;101169.22;5031567;28;19930;-80
2022/05/16 10:44:53;;;;;;;;;;;;;;;21.81;70.42;101161.34;5047971;28;19935;-79
2022/05/16 10:47:29;;;;;;;;;;;;;;;21.91;68.18;101169.19;5024032;28;19935;-79
2022/05/16 10:50:04;;;;;;;;;;;;;;;22.13;67.48;101156.84;5045086;28;19924;-79
2022/05/16 10:52:37;;;;;;;;;;;;;;;22.17;67.31;101154.97;5024050;28;19935;-79
2022/05/16 10:55:10;;;;;;;;;;;;;;;21.94;60.47;101154.63;5041392;28;20422;-79
2022/05/16 10:57:58;;;;;;;;;;;;;;;21.81;55.81;101153.84;5048528;28;20440;-79
2022/05/16 11:00:34;;;;;;;;;;;;;;;21.78;56.68;101151.75;5045293;28;19928;-79
2022/05/16 11:03:17;;;;;;;;;;;;;;;21.58;51.91;101153.44;5051348;28;19925;-79
2022/05/16 11:05:56;;;;;;;;;;;;;;;22.08;70.78;101149.56;5023847;28;19928;-79
2022/05/16 11:08:36;;;;;;;;;;;;;;;22.25;60.85;101142.97;5046768;28;20614;-80
2022/05/16 11:11:17;;;;;;;;;;;;;;;22.15;50.96;101146.22;5047445;28;20281;-78
2022/05/16 11:13:53;;;;;;;;;;;;;;;22.00;47.21;101133.88;5046952;28;20328;-79
2022/05/16 11:16:28;;;;;;;;;;;;;;;22.00;49.13;101133.03;5027083;28;20268;-79
2022/05/16 11:19:12;;;;;;;;;;;;;;;21.94;52.42;101135.25;5039447;28;19929;-79
2022/05/16 11:21:48;;;;;;;;;;;;;;;22.42;60.77;101124.47;5027033;28;20539;-79
2022/05/16 11:24:31;;;;;;;;;;;;;;;22.23;45.08;101119.50;5041548;28;19928;-79
2022/05/16 11:27:03;;;;;;;;;;;;;;;22.48;52.67;101117.53;5024424;28;19941;-78
2022/05/16 11:29:36;;;;;;;;;;;;;;;22.64;50.18;101117.59;5032368;28;19935;-81
2022/05/16 11:32:24;;;;;;;;;;;;;;;22.62;49.16;101113.56;5048070;28;19936;-80
2022/05/16 11:35:02;;;;;;;;;;;;;;;22.46;54.00;101111.53;5047506;28;19935;-80
2022/05/16 11:37:42;;;;;;;;;;;;;;;22.33;43.72;101105.19;5024588;28;19935;-79
2022/05/16 11:40:21;;;;;;;;;;;;;;;22.55;55.40;101105.84;5042439;28;19935;-79
2022/05/16 11:43:01;;;;;;;1.27;0.70;;;;;;;22.23;41.71;101102.88;5049844;28;19935;-81
2022/05/16 11:46:05;;;;;;;0.73;0.60;;;;;;;22.47;47.02;101106.78;5043226;28;20056;-80
2022/05/16 11:48:44;;;;;;;2.35;0.80;;;;;;;22.22;43.32;101093.75;5028940;28;20060;-79
2022/05/16 11:51:28;;;;;;;1.58;0.70;;;;;;;22.65;49.78;101091.47;5027275;28;20067;-80
2022/05/16 11:54:04;;;;;;;1.45;0.68;;;;;;;22.62;48.36;101086.66;5024034;28;20057;-79
2022/05/16 12:02:42;;;;;;;3.60;0.85;;;;;;;22.73;48.91;101075.84;5052211;28;20820;-79
2022/05/16 12:05:32;;;;;;;2.30;0.80;;;;;;;22.91;48.51;101068.00;5025006;28;20056;-80
2022/05/16 12:08:31;;;;;;;2.55;0.93;;;;;;;23.20;53.82;101068.78;5026834;28;20067;-80
2022/05/16 12:11:21;;;;;;;2.45;0.70;;;;;;;23.03;46.78;101058.81;5033795;28;20076;-81
2022/05/16 12:14:10;;;;;;;1.33;0.70;;;;;;;23.28;47.85;101067.81;5042663;28;20056;-80
2022/05/16 12:16:56;;;;;;;1.05;0.75;;;;;;;22.94;42.81;101070.09;5057372;28;21300;-81
2022/05/16 12:19:33;;;;;;;1.67;0.68;;;;;;;23.15;44.41;101061.53;5048275;28;20045;-81
2022/05/16 12:22:08;;;;;;;1.38;0.65;;;;;;;23.47;49.10;101064.31;5047515;28;20044;-81
2022/05/16 12:25:10;;;;;;;2.38;0.88;;;;;;;23.46;42.41;101073.81;5032871;28;20430;-80
2022/05/16 12:27:45;;;;;;;1.20;0.70;;;;;;;23.46;45.81;101076.59;5049465;28;20537;-80
2022/05/16 12:30:44;;;;;;;1.38;0.80;;;;;;;23.40;41.28;101070.50;5024603;28;20052;-81
2022/05/16 12:33:34;;;;;;;0.77;0.70;;;;;;;23.37;41.92;101090.66;5031051;28;20057;-81
2022/05/16 12:36:02;;;;;;;2.22;0.70;;;;;;;23.54;47.38;101083.94;5051311;28;20159;-81
2022/05/16 12:38:35;;;;;;;1.75;0.80;;;;;;;23.80;49.27;101084.56;5043594;28;20059;-81
2022/05/16 12:41:38;;;;;;;1.10;0.65;;;;;;;23.39;40.65;101068.09;5036339;28;20384;-82
2022/05/16 12:44:42;;;;;;;1.67;0.82;;;;;;;23.73;44.23;101077.66;5031113;28;20044;-81
2022/05/16 12:47:49;;;;;;;0.70;0.60;;;;;;;23.49;42.20;101066.75;5014621;28;20525;-82
2022/05/16 12:50:58;;;;;;;1.60;0.73;;;;;;;23.64;47.60;101074.25;5031735;28;20060;-81
2022/05/16 12:53:50;;;;;;;1.92;0.85;;;;;;;23.95;43.99;101069.88;5032353;28;20059;-82
2022/05/16 12:56:24;;;;;;;1.65;0.70;;;;;;;23.77;41.20;101056.31;5049373;28;20060;-81
2022/05/16 12:59:02;;;;;;;1.27;0.70;;;;;;;24.05;44.64;101057.38;5053331;28;20036;-81
2022/05/16 13:01:41;;;;;;;2.17;0.80;;;;;;;23.55;41.34;101052.22;5044054;28;20056;-81
2022/05/16 13:04:28;;;;;;;3.00;0.85;;;;;;;23.46;40.88;101053.59;5047505;28;20048;-80
2022/05/16 13:07:07;;;;;;;1.20;0.73;;;;;;;23.62;46.19;101051.59;5032034;28;20060;-81
2022/05/16 13:09:51;;;;;;;2.97;0.90;;;;;;;23.33;41.27;101053.66;5036383;28;20370;-80
2022/05/16 13:12:36;;;;;;;1.55;0.80;;;;;;;23.26;41.08;101050.72;5029369;28;20082;-81
2022/05/16 13:15:15;;;;;;;1.30;0.83;;;;;;;23.40;41.59;101037.19;5027961;28;20056;-81
2022/05/16 13:17:50;;;;;;;1.30;0.70;;;;;;;23.81;43.04;101038.91;5049273;28;20302;-81
2022/05/16 13:20:31;;;;;;;2.70;1.38;;;;;;;23.60;39.54;101035.28;5046283;28;20053;-81
2022/05/16 13:23:06;;;;;;;2.25;0.90;;;;;;;23.87;43.11;101029.94;5051454;28;20049;-81
2022/05/16 13:31:33;;;;;;;1.30;0.70;;;;;;;24.09;44.73;101027.69;5030757;28;20056;-80
2022/05/16 13:34:02;;;;;;;1.65;0.88;;;;;;;23.99;43.20;101025.44;5045068;28;20087;-80
2022/05/16 13:36:30;;;;;;;1.98;0.88;;;;;;;24.17;41.59;101021.09;5026634;28;20053;-81
2022/05/16 13:39:02;;;;;;;1.92;0.85;;;;;;;24.23;41.59;101025.19;5029173;28;20052;-79